createdAt,value
2017-02-09T01:01:13.561Z,9.45
2017-02-09T01:02:13.617Z,9.36
2017-02-09T01:03:13.559Z,9.36
2017-02-09T01:04:13.491Z,9.55
2017-02-09T01:05:13.427Z,9.45
2017-02-09T01:06:12.977Z,9.36
2017-02-09T01:07:13.303Z,9.55
2017-02-09T01:08:13.237Z,9.45
2017-02-09T01:09:13.174Z,9.26
2017-02-09T01:10:13.360Z,9.45
2017-02-09T01:11:13.049Z,9.55
2017-02-09T01:12:12.983Z,9.36
2017-02-09T01:13:12.922Z,9.45
2017-02-09T01:14:12.859Z,9.45
2017-02-09T01:15:12.795Z,9.26
2017-02-09T01:16:12.740Z,9.55
2017-02-09T01:17:12.687Z,9.26
2017-02-09T01:18:12.604Z,9.26
2017-02-09T01:19:12.558Z,9.45
2017-02-09T01:20:12.759Z,9.55
2017-02-09T01:21:12.421Z,9.45
2017-02-09T01:22:12.360Z,9.64
2017-02-09T01:23:12.286Z,9.55
2017-02-09T01:24:12.222Z,9.45
2017-02-09T01:25:12.159Z,9.64
2017-02-09T01:26:12.094Z,9.64
2017-02-09T01:27:12.034Z,9.45
2017-02-09T01:28:11.970Z,9.36
2017-02-09T01:29:11.903Z,9.45
2017-02-09T01:30:12.093Z,9.45
2017-02-09T01:31:11.779Z,9.45
2017-02-09T01:32:11.715Z,9.74
2017-02-09T01:33:11.649Z,9.36
2017-02-09T01:34:11.589Z,9.55
2017-02-09T01:36:11.463Z,9.45
2017-02-09T01:37:11.397Z,9.45
2017-02-09T01:38:11.334Z,9.36
2017-02-09T01:39:11.274Z,9.36
2017-02-09T01:40:11.216Z,9.55
2017-02-09T01:41:11.144Z,9.45
2017-02-09T01:42:11.080Z,9.45
2017-02-09T01:43:11.017Z,9.36
2017-02-09T01:44:10.963Z,9.64
2017-02-09T01:45:10.922Z,9.45
2017-02-09T01:46:11.076Z,9.45
2017-02-09T01:47:10.763Z,9.45
2017-02-09T01:48:10.713Z,9.36
2017-02-09T01:49:10.655Z,9.84
2017-02-09T01:50:10.587Z,9.55
2017-02-09T01:51:10.512Z,9.26
2017-02-09T01:52:10.452Z,9.26
2017-02-09T01:53:10.470Z,9.45
2017-02-09T01:54:09.933Z,9.36
2017-02-09T01:55:10.558Z,9.45
2017-02-09T01:56:09.806Z,9.45
2017-02-09T01:57:09.829Z,9.45
2017-02-09T01:58:10.065Z,9.55
2017-02-09T01:59:10.002Z,9.55
2017-02-09T02:00:09.554Z,9.55
2017-02-09T02:01:09.877Z,9.45
2017-02-09T02:02:09.813Z,9.55
2017-02-09T02:03:09.365Z,9.55
2017-02-09T02:04:09.685Z,9.45
2017-02-09T02:05:09.624Z,9.55
2017-02-09T02:06:09.559Z,9.55
2017-02-09T02:07:09.494Z,9.64
2017-02-09T02:08:09.432Z,9.45
2017-02-09T02:09:09.371Z,9.64
2017-02-09T02:10:09.809Z,9.45
2017-02-09T02:11:09.249Z,9.45
2017-02-09T02:12:09.179Z,9.55
2017-02-09T02:13:09.118Z,9.45
2017-02-09T02:14:09.056Z,9.45
2017-02-09T02:15:08.995Z,9.45
2017-02-09T02:16:08.926Z,9.74
2017-02-09T02:17:08.863Z,9.84
2017-02-09T02:18:08.800Z,10.13
2017-02-09T02:19:08.736Z,9.74
2017-02-09T02:20:08.921Z,9.75
2017-02-09T02:21:08.608Z,9.64
2017-02-09T02:22:08.553Z,9.84
2017-02-09T02:23:08.480Z,10.13
2017-02-09T02:24:08.417Z,9.75
2017-02-09T02:25:08.355Z,9.74
2017-02-09T02:26:08.291Z,9.65
2017-02-09T02:27:08.229Z,9.74
2017-02-09T02:28:08.163Z,9.65
2017-02-09T02:29:08.098Z,9.84
2017-02-09T02:30:08.047Z,10.03
2017-02-09T02:31:07.975Z,9.65
2017-02-09T02:32:07.916Z,10.03
2017-02-09T02:33:07.856Z,9.55
2017-02-09T02:34:07.788Z,9.84
2017-02-09T02:35:07.727Z,9.26
2017-02-09T02:36:07.733Z,9.36
2017-02-09T02:37:07.596Z,9.45
2017-02-09T02:38:07.598Z,9.65
2017-02-09T02:39:07.479Z,9.64
2017-02-09T02:40:07.753Z,9.64
2017-02-09T02:41:07.344Z,9.55
2017-02-09T02:42:07.278Z,9.64
2017-02-09T02:43:07.276Z,9.55
2017-02-09T02:44:07.154Z,9.55
2017-02-09T02:45:06.783Z,9.55
2017-02-09T02:46:07.027Z,9.36
2017-02-09T02:47:06.963Z,9.45
2017-02-09T02:48:06.904Z,9.45
2017-02-09T02:49:06.836Z,9.45
2017-02-09T02:50:07.134Z,9.36
2017-02-09T02:51:06.774Z,9.36
2017-02-09T02:52:06.644Z,9.45
2017-02-09T02:53:06.585Z,9.64
2017-02-09T02:54:06.520Z,9.26
2017-02-09T02:55:06.456Z,9.45
2017-02-09T02:56:06.394Z,9.55
2017-02-09T02:57:06.328Z,9.64
2017-02-09T02:58:06.266Z,9.55
2017-02-09T02:59:06.203Z,9.45
2017-02-09T03:00:06.202Z,9.64
2017-02-09T03:01:06.133Z,9.55
2017-02-09T03:02:06.022Z,9.45
2017-02-09T03:03:05.949Z,9.55
2017-02-09T03:04:05.894Z,9.45
2017-02-09T03:05:05.871Z,9.45
2017-02-09T03:06:05.762Z,9.55
2017-02-09T03:07:05.698Z,9.45
2017-02-09T03:08:05.633Z,9.45
2017-02-09T03:09:05.186Z,9.55
2017-02-09T03:10:05.507Z,9.45
2017-02-09T03:11:05.444Z,9.36
2017-02-09T03:12:05.441Z,9.45
2017-02-09T03:13:05.317Z,9.45
2017-02-09T03:14:05.252Z,9.55
2017-02-09T03:15:04.802Z,9.45
2017-02-09T03:16:05.124Z,9.45
2017-02-09T03:17:05.062Z,9.64
2017-02-09T03:18:05.014Z,9.55
2017-02-09T03:19:04.938Z,9.36
2017-02-09T03:20:19.373Z,9.93
2017-02-09T03:21:04.814Z,9.64
2017-02-09T03:22:04.745Z,9.93
2017-02-09T03:23:04.681Z,9.55
2017-02-09T03:24:04.620Z,9.45
2017-02-09T03:25:04.557Z,9.64
2017-02-09T03:26:04.495Z,9.84
2017-02-09T03:27:04.426Z,9.74
2017-02-09T03:28:04.366Z,9.64
2017-02-09T03:29:04.322Z,9.55
2017-02-09T03:30:04.237Z,9.84
2017-02-09T03:31:04.176Z,9.84
2017-02-09T03:32:04.143Z,9.74
2017-02-09T03:33:04.049Z,9.84
2017-02-09T03:34:03.599Z,9.74
2017-02-09T03:35:03.920Z,9.64
2017-02-09T03:36:03.861Z,9.93
2017-02-09T03:37:03.794Z,9.84
2017-02-09T03:38:03.731Z,9.55
2017-02-09T03:39:03.670Z,9.93
2017-02-09T03:40:03.857Z,9.84
2017-02-09T03:41:03.541Z,9.93
2017-02-09T03:42:03.505Z,10.03
2017-02-09T03:43:03.415Z,9.84
2017-02-09T03:44:03.350Z,9.93
2017-02-09T03:45:03.290Z,9.84
2017-02-09T03:46:03.155Z,9.93
2017-02-09T03:47:03.160Z,9.93
2017-02-09T03:48:03.097Z,9.93
2017-02-09T03:49:03.034Z,9.93
2017-02-09T03:50:02.969Z,9.84
2017-02-09T03:51:02.907Z,9.74
2017-02-09T03:52:02.845Z,9.74
2017-02-09T03:53:02.778Z,9.74
2017-02-09T03:54:02.720Z,9.64
2017-02-09T03:55:02.655Z,9.55
2017-02-09T03:56:02.590Z,9.93
2017-02-09T03:57:02.529Z,9.74
2017-02-09T03:58:02.497Z,10.03
2017-02-09T03:59:02.403Z,10.03
2017-02-09T04:00:02.336Z,9.93
2017-02-09T04:01:02.278Z,10.03
2017-02-09T04:02:02.210Z,9.64
2017-02-09T04:03:02.148Z,9.55
2017-02-09T04:04:02.084Z,10.03
2017-02-09T04:05:02.023Z,10.03
2017-02-09T04:06:01.959Z,9.93
2017-02-09T04:07:01.893Z,9.74
2017-02-09T04:08:01.839Z,10.03
2017-02-09T04:09:01.767Z,9.74
2017-02-09T04:10:01.703Z,9.64
2017-02-09T04:11:01.735Z,9.74
2017-02-09T04:12:01.592Z,9.64
2017-02-09T04:13:01.512Z,10.03
2017-02-09T04:14:01.447Z,9.64
2017-02-09T04:15:01.007Z,9.55
2017-02-09T04:16:01.334Z,9.74
2017-02-09T04:17:00.902Z,10.03
2017-02-09T04:18:01.224Z,9.84
2017-02-09T04:19:01.145Z,9.64
2017-02-09T04:20:01.114Z,9.74
2017-02-09T04:21:01.077Z,9.74
2017-02-09T04:22:00.993Z,9.84
2017-02-09T04:23:00.896Z,9.64
2017-02-09T04:24:00.815Z,9.64
2017-02-09T04:25:00.755Z,9.55
2017-02-09T04:26:00.699Z,9.64
2017-02-09T04:27:00.629Z,9.55
2017-02-09T04:28:00.560Z,9.55
2017-02-09T04:29:00.502Z,9.64
2017-02-09T04:30:00.452Z,9.84
2017-02-09T04:30:59.988Z,9.45
2017-02-09T04:32:00.307Z,9.64
2017-02-09T04:33:00.294Z,9.64
2017-02-09T04:34:00.206Z,9.74
2017-02-09T04:35:00.119Z,9.64
2017-02-09T04:36:00.054Z,9.74
2017-02-09T04:36:59.990Z,9.64
2017-02-09T04:37:59.927Z,9.64
2017-02-09T04:38:59.907Z,9.64
2017-02-09T04:39:59.867Z,9.74
2017-02-09T04:40:59.738Z,9.64
2017-02-09T04:41:59.677Z,9.64
2017-02-09T04:42:59.610Z,9.74
2017-02-09T04:43:59.571Z,9.64
2017-02-09T04:44:59.484Z,9.64
2017-02-09T04:45:59.420Z,9.64
2017-02-09T04:46:59.355Z,9.64
2017-02-09T04:47:59.291Z,9.64
2017-02-09T04:48:59.229Z,9.64
2017-02-09T04:49:59.169Z,9.64
2017-02-09T04:50:59.102Z,9.64
2017-02-09T04:51:59.053Z,9.55
2017-02-09T04:52:58.975Z,9.64
2017-02-09T04:53:58.912Z,9.64
2017-02-09T04:54:58.845Z,9.64
2017-02-09T04:55:58.794Z,9.64
2017-02-09T04:56:58.723Z,9.64
2017-02-09T04:57:58.655Z,9.64
2017-02-09T04:58:58.591Z,9.55
2017-02-09T04:59:58.532Z,9.64
2017-02-09T05:00:58.473Z,9.64
2017-02-09T05:01:58.019Z,9.55
2017-02-09T05:02:58.347Z,9.64
2017-02-09T05:03:58.279Z,9.64
2017-02-09T05:04:58.214Z,9.55
2017-02-09T05:05:58.149Z,9.55
2017-02-09T05:06:57.698Z,9.64
2017-02-09T05:07:58.023Z,9.74
2017-02-09T05:08:57.959Z,9.55
2017-02-09T05:09:57.512Z,9.55
2017-02-09T05:10:57.831Z,9.64
2017-02-09T05:11:57.769Z,9.74
2017-02-09T05:12:57.706Z,9.74
2017-02-09T05:13:57.252Z,9.84
2017-02-09T05:14:57.576Z,9.74
2017-02-09T05:15:57.516Z,10.03
2017-02-09T05:16:57.059Z,9.74
2017-02-09T05:17:57.387Z,9.74
2017-02-09T05:18:57.326Z,9.74
2017-02-09T05:19:57.258Z,9.64
2017-02-09T05:20:57.268Z,9.74
2017-02-09T05:21:57.135Z,9.74
2017-02-09T05:22:57.070Z,9.84
2017-02-09T05:23:57.007Z,9.74
2017-02-09T05:24:56.944Z,9.74
2017-02-09T05:25:56.884Z,9.84
2017-02-09T05:26:56.817Z,9.84
2017-02-09T05:27:56.755Z,9.74
2017-02-09T05:28:56.689Z,9.84
2017-02-09T05:29:56.624Z,9.74
2017-02-09T05:30:56.562Z,9.74
2017-02-09T05:31:56.496Z,10.13
2017-02-09T05:32:56.449Z,9.84
2017-02-09T05:33:56.371Z,10.13
2017-02-09T05:34:56.306Z,9.74
2017-02-09T05:35:56.244Z,10.13
2017-02-09T05:36:56.178Z,9.74
2017-02-09T05:37:56.117Z,10.13
2017-02-09T05:38:56.054Z,10.13
2017-02-09T05:39:55.599Z,10.13
2017-02-09T05:40:55.928Z,10.13
2017-02-09T05:41:55.863Z,10.03
2017-02-09T05:42:55.797Z,9.84
2017-02-09T05:43:55.740Z,10.13
2017-02-09T05:44:55.283Z,10.22
2017-02-09T05:45:55.216Z,10.13
2017-02-09T05:46:55.545Z,10.13
2017-02-09T05:47:55.481Z,9.74
2017-02-09T05:48:55.418Z,9.93
2017-02-09T05:49:55.356Z,9.36
2017-02-09T05:50:55.290Z,9.36
2017-02-09T05:51:55.231Z,9.45
2017-02-09T05:52:55.200Z,9.45
2017-02-09T05:53:55.100Z,8.68
2017-02-09T05:54:55.035Z,9.45
2017-02-09T05:55:54.975Z,9.26
2017-02-09T05:56:54.912Z,9.36
2017-02-09T05:57:54.846Z,9.06
2017-02-09T05:58:54.396Z,9.26
2017-02-09T05:59:54.718Z,8.87
2017-02-09T06:00:54.655Z,8.78
2017-02-09T06:01:54.592Z,8.68
2017-02-09T06:02:54.528Z,8.48
2017-02-09T06:03:54.463Z,8.58
2017-02-09T06:04:54.399Z,8.48
2017-02-09T06:05:54.338Z,8.48
2017-02-09T06:06:54.287Z,8.58
2017-02-09T06:07:54.214Z,8.58
2017-02-09T06:08:54.149Z,8.78
2017-02-09T06:09:54.083Z,8.87
2017-02-09T06:10:54.024Z,8.67
2017-02-09T06:11:53.960Z,8.68
2017-02-09T06:12:53.892Z,8.48
2017-02-09T06:13:53.841Z,8.29
2017-02-09T06:14:53.768Z,8.29
2017-02-09T06:15:53.701Z,8.48
2017-02-09T06:16:53.645Z,8.58
2017-02-09T06:17:53.577Z,8.48
2017-02-09T06:18:53.522Z,8.29
2017-02-09T06:19:53.446Z,8.39
2017-02-09T06:20:53.382Z,8.1
2017-02-09T06:21:53.321Z,8.29
2017-02-09T06:22:53.254Z,8.39
2017-02-09T06:23:53.192Z,8.1
2017-02-09T06:24:52.813Z,8.2
2017-02-09T06:25:53.068Z,8.2
2017-02-09T06:26:53.077Z,8.09
2017-02-09T06:27:52.940Z,8.2
2017-02-09T06:28:52.875Z,8.19
2017-02-09T06:29:52.810Z,8.29
2017-02-09T06:30:52.747Z,8.2
2017-02-09T06:31:52.685Z,8.2
2017-02-09T06:32:52.621Z,7.81
2017-02-09T06:33:52.556Z,7.9
2017-02-09T06:34:52.494Z,8.09
2017-02-09T06:35:52.434Z,8
2017-02-09T06:36:52.445Z,8
2017-02-09T06:37:52.303Z,7.81
2017-02-09T06:38:52.238Z,7.9
2017-02-09T06:39:52.476Z,7.52
2017-02-09T06:40:52.116Z,7.81
2017-02-09T06:41:52.048Z,8.1
2017-02-09T06:42:51.987Z,7.9
2017-02-09T06:43:51.921Z,7.9
2017-02-09T06:44:51.859Z,8
2017-02-09T06:45:51.796Z,7.81
2017-02-09T06:46:51.731Z,7.81
2017-02-09T06:47:51.667Z,7.71
2017-02-09T06:48:51.602Z,7.71
2017-02-09T06:49:51.541Z,7.32
2017-02-09T06:50:51.475Z,7.33
2017-02-09T06:51:51.415Z,7.42
2017-02-09T06:52:51.350Z,7.42
2017-02-09T06:53:51.286Z,7.42
2017-02-09T06:54:51.222Z,7.32
2017-02-09T06:55:51.156Z,7.62
2017-02-09T06:56:51.095Z,7.52
2017-02-09T06:57:51.036Z,7.52
2017-02-09T06:58:50.965Z,7.52
2017-02-09T06:59:50.901Z,7.62
2017-02-09T07:00:50.838Z,7.52
2017-02-09T07:01:50.773Z,7.32
2017-02-09T07:02:50.714Z,7.42
2017-02-09T07:03:50.646Z,7.61
2017-02-09T07:04:50.636Z,6.94
2017-02-09T07:05:50.625Z,7.33
2017-02-09T07:06:50.457Z,7.13
2017-02-09T07:07:50.441Z,7.71
2017-02-09T07:08:50.333Z,7.14
2017-02-09T07:09:50.335Z,7.61
2017-02-09T07:10:50.286Z,7.14
2017-02-09T07:11:50.136Z,7.71
2017-02-09T07:12:50.076Z,7.14
2017-02-09T07:13:50.013Z,7.52
2017-02-09T07:14:49.948Z,7.14
2017-02-09T07:15:49.887Z,7.61
2017-02-09T07:16:49.830Z,7.62
2017-02-09T07:17:49.756Z,7.13
2017-02-09T07:18:49.695Z,7.42
2017-02-09T07:19:49.632Z,7.23
2017-02-09T07:20:49.575Z,7.62
2017-02-09T07:21:49.503Z,7.23
2017-02-09T07:22:49.441Z,7.62
2017-02-09T07:23:49.387Z,7.52
2017-02-09T07:24:49.312Z,7.23
2017-02-09T07:25:49.500Z,7.23
2017-02-09T07:26:49.276Z,7.14
2017-02-09T07:27:49.118Z,7.13
2017-02-09T07:28:49.056Z,6.84
2017-02-09T07:29:48.991Z,6.84
2017-02-09T07:30:48.952Z,7.42
2017-02-09T07:31:48.864Z,6.85
2017-02-09T07:32:48.803Z,6.85
2017-02-09T07:33:48.739Z,7.13
2017-02-09T07:34:48.722Z,7.04
2017-02-09T07:35:48.611Z,6.94
2017-02-09T07:36:48.546Z,6.84
2017-02-09T07:37:48.503Z,6.94
2017-02-09T07:38:48.423Z,7.04
2017-02-09T07:39:48.367Z,6.94
2017-02-09T07:40:48.292Z,7.04
2017-02-09T07:41:48.227Z,6.94
2017-02-09T07:42:48.168Z,7.14
2017-02-09T07:43:48.101Z,7.14
2017-02-09T07:44:48.038Z,6.94
2017-02-09T07:45:47.981Z,6.94
2017-02-09T07:46:47.912Z,7.13
2017-02-09T07:47:47.848Z,7.23
2017-02-09T07:48:47.784Z,6.94
2017-02-09T07:49:47.723Z,7.23
2017-02-09T07:50:47.657Z,7.13
2017-02-09T07:51:47.594Z,7.33
2017-02-09T07:52:47.535Z,6.84
2017-02-09T07:53:47.469Z,6.94
2017-02-09T07:54:47.399Z,7.14
2017-02-09T07:55:47.336Z,6.84
2017-02-09T07:56:47.275Z,7.14
2017-02-09T07:57:47.212Z,6.94
2017-02-09T07:58:47.147Z,7.23
2017-02-09T07:59:47.086Z,6.84
2017-02-09T08:00:47.025Z,7.23
2017-02-09T08:01:46.956Z,7.23
2017-02-09T08:02:46.891Z,7.04
2017-02-09T08:03:46.831Z,7.23
2017-02-09T08:04:46.763Z,7.23
2017-02-09T08:05:46.700Z,7.04
2017-02-09T08:06:46.645Z,7.04
2017-02-09T08:07:46.595Z,6.94
2017-02-09T08:08:46.508Z,7.04
2017-02-09T08:09:46.703Z,7.04
2017-02-09T08:10:46.741Z,7.14
2017-02-09T08:11:46.319Z,7.04
2017-02-09T08:12:46.258Z,7.14
2017-02-09T08:13:46.193Z,7.13
2017-02-09T08:14:46.128Z,6.94
2017-02-09T08:15:46.066Z,7.04
2017-02-09T08:16:46.002Z,6.85
2017-02-09T08:17:45.937Z,7.04
2017-02-09T08:18:45.887Z,7.52
2017-02-09T08:19:45.816Z,7.62
2017-02-09T08:20:45.746Z,7.52
2017-02-09T08:21:45.687Z,7.52
2017-02-09T08:22:45.621Z,8.1
2017-02-09T08:23:45.562Z,8.39
2017-02-09T08:24:45.497Z,8.39
2017-02-09T08:25:45.432Z,8.2
2017-02-09T08:26:44.980Z,8.87
2017-02-09T08:27:45.303Z,8.48
2017-02-09T08:28:45.240Z,9.16
2017-02-09T08:29:45.178Z,9.36
2017-02-09T08:30:45.115Z,9.26
2017-02-09T08:31:45.061Z,9.36
2017-02-09T08:32:44.987Z,9.64
2017-02-09T08:33:44.935Z,9.45
2017-02-09T08:34:44.470Z,9.36
2017-02-09T08:35:44.795Z,9.74
2017-02-09T08:36:44.732Z,9.55
2017-02-09T08:37:44.672Z,9.74
2017-02-09T08:38:44.688Z,10.13
2017-02-09T08:39:44.544Z,10.13
2017-02-09T08:40:44.480Z,10.32
2017-02-09T08:41:44.418Z,10.32
2017-02-09T08:42:44.357Z,10.22
2017-02-09T08:43:44.288Z,10.22
2017-02-09T08:44:44.226Z,10.41
2017-02-09T08:45:44.168Z,11.09
2017-02-09T08:46:44.099Z,11.09
2017-02-09T08:47:44.032Z,10.8
2017-02-09T08:48:43.974Z,11.47
2017-02-09T08:49:43.910Z,11.29
2017-02-09T08:50:44.099Z,11.38
2017-02-09T08:51:43.782Z,11.77
2017-02-09T08:52:43.730Z,11.77
2017-02-09T08:53:43.661Z,11.68
2017-02-09T08:54:43.606Z,11.77
2017-02-09T08:55:43.777Z,11.87
2017-02-09T08:56:43.466Z,12.05
2017-02-09T08:57:43.407Z,11.96
2017-02-09T08:58:43.361Z,12.26
2017-02-09T08:59:43.277Z,12.16
2017-02-09T09:00:43.464Z,11.96
2017-02-09T09:01:43.152Z,12.35
2017-02-09T09:02:43.091Z,12.54
2017-02-09T09:03:43.021Z,12.64
2017-02-09T09:04:42.964Z,12.84
2017-02-09T09:05:42.908Z,12.45
2017-02-09T09:06:42.831Z,12.74
2017-02-09T09:07:42.769Z,12.84
2017-02-09T09:08:42.708Z,12.84
2017-02-09T09:09:42.648Z,13.02
2017-02-09T09:10:42.581Z,13.41
2017-02-09T09:11:42.516Z,13.12
2017-02-09T09:12:42.452Z,13.12
2017-02-09T09:13:42.400Z,12.93
2017-02-09T09:14:42.339Z,12.93
2017-02-09T09:15:42.513Z,13.32
2017-02-09T09:16:42.199Z,13.99
2017-02-09T09:17:42.149Z,13.6
2017-02-09T09:18:42.074Z,13.6
2017-02-09T09:19:42.023Z,13.9
2017-02-09T09:20:42.252Z,13.99
2017-02-09T09:21:41.885Z,14.28
2017-02-09T09:22:41.432Z,13.9
2017-02-09T09:23:41.756Z,13.99
2017-02-09T09:24:41.789Z,13.8
2017-02-09T09:25:41.632Z,13.99
2017-02-09T09:26:41.569Z,14.09
2017-02-09T09:27:41.503Z,13.9
2017-02-09T09:28:41.581Z,13.6
2017-02-09T09:29:41.381Z,13.22
2017-02-09T09:30:41.314Z,13.02
2017-02-09T09:31:41.252Z,13.32
2017-02-09T09:32:41.188Z,12.45
2017-02-09T09:33:41.127Z,12.54
2017-02-09T09:34:41.065Z,12.35
2017-02-09T09:35:40.998Z,12.35
2017-02-09T09:36:40.941Z,12.06
2017-02-09T09:37:40.554Z,11.87
2017-02-09T09:38:40.420Z,11.87
2017-02-09T09:39:40.782Z,11.68
2017-02-09T09:40:41.028Z,11.38
2017-02-09T09:41:40.622Z,11.29
2017-02-09T09:42:40.560Z,10.9
2017-02-09T09:43:40.495Z,11.19
2017-02-09T09:44:40.431Z,10.42
2017-02-09T09:45:40.370Z,10.52
2017-02-09T09:46:40.303Z,10.52
2017-02-09T09:47:40.248Z,10.23
2017-02-09T09:48:39.847Z,10.52
2017-02-09T09:49:40.116Z,10.13
2017-02-09T09:50:40.124Z,10.42
2017-02-09T09:51:39.991Z,9.94
2017-02-09T09:52:39.556Z,9.75
2017-02-09T09:53:39.861Z,9.36
2017-02-09T09:54:39.798Z,9.55
2017-02-09T09:55:39.734Z,9.36
2017-02-09T09:56:39.673Z,9.55
2017-02-09T09:57:39.609Z,9.27
2017-02-09T09:58:39.770Z,9.36
2017-02-09T09:59:39.515Z,8.97
2017-02-09T10:00:39.420Z,9.55
2017-02-09T10:01:39.362Z,9.45
2017-02-09T10:02:39.294Z,9.27
2017-02-09T10:03:39.229Z,9.36
2017-02-09T10:04:39.170Z,8.97
2017-02-09T10:05:39.149Z,8.69
2017-02-09T10:06:39.042Z,8.49
2017-02-09T10:07:38.997Z,8.59
2017-02-09T10:08:38.912Z,8.78
2017-02-09T10:09:38.918Z,8.59
2017-02-09T10:10:38.790Z,8.69
2017-02-09T10:11:38.723Z,8.29
2017-02-09T10:12:38.684Z,8.39
2017-02-09T10:13:38.596Z,8.59
2017-02-09T10:14:38.535Z,8.29
2017-02-09T10:15:38.621Z,8.2
2017-02-09T10:16:38.406Z,7.91
2017-02-09T10:17:38.342Z,8.29
2017-02-09T10:18:38.280Z,8.29
2017-02-09T10:19:38.217Z,8.39
2017-02-09T10:20:38.458Z,8.11
2017-02-09T10:21:38.091Z,8.29
2017-02-09T10:22:38.031Z,8.11
2017-02-09T10:23:37.962Z,7.91
2017-02-09T10:24:37.905Z,7.91
2017-02-09T10:25:38.091Z,7.9
2017-02-09T10:26:37.772Z,8.01
2017-02-09T10:27:37.713Z,7.81
2017-02-09T10:28:37.649Z,7.52
2017-02-09T10:29:37.637Z,7.91
2017-02-09T10:30:37.522Z,7.72
2017-02-09T10:31:37.460Z,7.71
2017-02-09T10:32:37.394Z,7.81
2017-02-09T10:33:37.334Z,7.33
2017-02-09T10:34:37.286Z,7.23
2017-02-09T10:35:37.208Z,7.33
2017-02-09T10:36:37.144Z,7.52
2017-02-09T10:37:37.079Z,7.72
2017-02-09T10:38:37.015Z,7.42
2017-02-09T10:39:36.822Z,7.52
2017-02-09T10:40:36.890Z,7.71
2017-02-09T10:41:36.855Z,7.52
2017-02-09T10:42:36.762Z,7.14
2017-02-09T10:43:36.699Z,7.33
2017-02-09T10:44:36.659Z,7.52
2017-02-09T10:45:36.571Z,7.62
2017-02-09T10:46:36.510Z,7.53
2017-02-09T10:47:36.444Z,7.52
2017-02-09T10:48:36.680Z,7.72
2017-02-09T10:49:36.327Z,7.52
2017-02-09T10:50:35.869Z,7.33
2017-02-09T10:51:36.190Z,7.33
2017-02-09T10:52:36.130Z,7.62
2017-02-09T10:53:36.065Z,7.62
2017-02-09T10:54:36.021Z,7.53
2017-02-09T10:55:35.938Z,7.62
2017-02-09T10:56:35.874Z,7.62
2017-02-09T10:57:35.867Z,7.23
2017-02-09T10:58:35.752Z,7.23
2017-02-09T10:59:35.684Z,7.23
2017-02-09T11:00:35.623Z,7.62
2017-02-09T11:01:35.564Z,7.23
2017-02-09T11:02:35.497Z,7.23
2017-02-09T11:03:35.439Z,7.33
2017-02-09T11:04:35.369Z,7.23
2017-02-09T11:05:35.314Z,7.52
2017-02-09T11:06:35.248Z,7.42
2017-02-09T11:07:35.199Z,7.42
2017-02-09T11:08:35.116Z,7.23
2017-02-09T11:09:35.051Z,6.94
2017-02-09T11:10:35.003Z,7.53
2017-02-09T11:11:34.948Z,7.33
2017-02-09T11:12:34.959Z,7.33
2017-02-09T11:13:34.799Z,6.75
2017-02-09T11:14:34.770Z,6.85
2017-02-09T11:15:34.671Z,6.85
2017-02-09T11:16:34.610Z,7.04
2017-02-09T11:17:34.547Z,7.04
2017-02-09T11:18:34.483Z,6.95
2017-02-09T11:19:34.420Z,7.04
2017-02-09T11:20:34.411Z,6.94
2017-02-09T11:21:34.293Z,7.42
2017-02-09T11:22:34.228Z,7.42
2017-02-09T11:23:34.229Z,8.2
2017-02-09T11:24:34.171Z,8.2
2017-02-09T11:25:34.041Z,8.39
2017-02-09T11:26:34.000Z,8.58
2017-02-09T11:27:33.912Z,8.97
2017-02-09T11:28:33.501Z,9.27
2017-02-09T11:29:33.848Z,8.78
2017-02-09T11:30:33.994Z,9.55
2017-02-09T11:31:33.662Z,9.45
2017-02-09T11:32:33.676Z,9.74
2017-02-09T11:33:33.535Z,9.84
2017-02-09T11:34:33.475Z,10.61
2017-02-09T11:35:33.410Z,10.22
2017-02-09T11:36:33.375Z,10.51
2017-02-09T11:37:33.278Z,10.71
2017-02-09T11:38:33.216Z,11
2017-02-09T11:39:33.213Z,10.99
2017-02-09T11:40:33.097Z,10.71
2017-02-09T11:41:33.276Z,11.38
2017-02-09T11:42:32.968Z,11
2017-02-09T11:43:32.913Z,11.57
2017-02-09T11:44:32.840Z,11.58
2017-02-09T11:45:32.875Z,11.96
2017-02-09T11:46:32.708Z,11.58
2017-02-09T11:47:32.669Z,12.16
2017-02-09T11:48:32.588Z,11.96
2017-02-09T11:49:32.523Z,12.35
2017-02-09T11:50:32.544Z,12.16
2017-02-09T11:51:32.813Z,11.86
2017-02-09T11:52:32.354Z,12.35
2017-02-09T11:53:32.272Z,12.74
2017-02-09T11:54:32.203Z,12.54
2017-02-09T11:55:32.144Z,12.35
2017-02-09T11:56:32.085Z,12.93
2017-02-09T11:57:32.014Z,12.84
2017-02-09T11:58:32.007Z,13.32
2017-02-09T11:59:31.888Z,13.12
2017-02-09T12:00:31.822Z,13.02
2017-02-09T12:01:31.828Z,13.12
2017-02-09T12:02:31.765Z,13.22
2017-02-09T12:03:31.670Z,13.22
2017-02-09T12:04:31.570Z,13.22
2017-02-09T12:05:31.509Z,13.22
2017-02-09T12:06:31.445Z,13.12
2017-02-09T12:07:31.413Z,13.22
2017-02-09T12:08:31.319Z,13.22
2017-02-09T12:09:31.253Z,13.12
2017-02-09T12:10:31.444Z,13.02
2017-02-09T12:11:31.130Z,12.64
2017-02-09T12:12:31.066Z,12.44
2017-02-09T12:13:31.001Z,12.84
2017-02-09T12:14:30.939Z,12.54
2017-02-09T12:15:30.896Z,12.45
2017-02-09T12:16:30.820Z,12.45
2017-02-09T12:17:30.817Z,12.35
2017-02-09T12:18:30.689Z,12.45
2017-02-09T12:19:30.621Z,12.84
2017-02-09T12:20:30.561Z,12.64
2017-02-09T12:21:30.494Z,12.64
2017-02-09T12:22:30.516Z,12.54
2017-02-09T12:23:30.406Z,12.64
2017-02-09T12:24:30.389Z,12.64
2017-02-09T12:25:30.712Z,12.74
2017-02-09T12:26:30.201Z,12.64
2017-02-09T12:27:29.738Z,12.64
2017-02-09T12:28:30.055Z,12.54
2017-02-09T12:29:30.039Z,12.54
2017-02-09T12:30:29.939Z,12.64
2017-02-09T12:31:29.882Z,12.64
2017-02-09T12:32:29.800Z,12.64
2017-02-09T12:33:29.736Z,12.84
2017-02-09T12:34:29.676Z,12.64
2017-02-09T12:35:29.913Z,12.45
2017-02-09T12:36:29.549Z,12.54
2017-02-09T12:37:29.483Z,12.64
2017-02-09T12:38:29.454Z,12.45
2017-02-09T12:39:29.357Z,12.54
2017-02-09T12:40:29.156Z,12.64
2017-02-09T12:41:29.229Z,12.54
2017-02-09T12:42:29.170Z,12.54
2017-02-09T12:43:29.110Z,12.45
2017-02-09T12:44:29.053Z,12.54
2017-02-09T12:45:29.589Z,12.45
2017-02-09T12:46:28.914Z,12.64
2017-02-09T12:47:28.856Z,12.45
2017-02-09T12:48:28.404Z,12.84
2017-02-09T12:49:28.724Z,12.74
2017-02-09T12:50:28.665Z,13.02
2017-02-09T12:51:28.599Z,12.93
2017-02-09T12:52:28.538Z,12.84
2017-02-09T12:53:28.133Z,13.12
2017-02-09T12:54:28.483Z,12.93
2017-02-09T12:55:28.371Z,13.02
2017-02-09T12:56:28.306Z,12.93
2017-02-09T12:57:28.230Z,12.93
2017-02-09T12:58:28.159Z,12.93
2017-02-09T12:59:28.114Z,12.84
2017-02-09T13:00:28.039Z,12.84
2017-02-09T13:01:27.969Z,12.74
2017-02-09T13:02:27.957Z,12.74
2017-02-09T13:03:27.852Z,12.74
2017-02-09T13:04:27.785Z,12.93
2017-02-09T13:05:27.607Z,13.02
2017-02-09T13:06:27.661Z,13.22
2017-02-09T13:07:27.590Z,12.84
2017-02-09T13:08:27.527Z,12.74
2017-02-09T13:09:27.465Z,12.93
2017-02-09T13:10:27.010Z,13.12
2017-02-09T13:11:27.397Z,13.12
2017-02-09T13:12:27.273Z,12.93
2017-02-09T13:13:27.210Z,12.74
2017-02-09T13:14:27.146Z,12.84
2017-02-09T13:15:27.082Z,12.74
2017-02-09T13:16:27.021Z,12.35
2017-02-09T13:17:26.958Z,12.54
2017-02-09T13:18:26.895Z,12.64
2017-02-09T13:19:26.833Z,12.64
2017-02-09T13:20:27.023Z,12.45
2017-02-09T13:21:26.701Z,11.68
2017-02-09T13:22:26.644Z,11.58
2017-02-09T13:23:26.580Z,11.77
2017-02-09T13:24:26.542Z,11.58
2017-02-09T13:25:27.006Z,11.19
2017-02-09T13:26:26.395Z,10.71
2017-02-09T13:27:26.337Z,10.81
2017-02-09T13:28:26.261Z,10.42
2017-02-09T13:29:25.809Z,10.61
2017-02-09T13:30:26.387Z,10.23
2017-02-09T13:31:26.076Z,10.52
2017-02-09T13:32:25.630Z,10.52
2017-02-09T13:33:25.960Z,10.23
2017-02-09T13:34:25.496Z,10.23
2017-02-09T13:35:40.577Z,9.65
2017-02-09T13:36:25.760Z,9.75
2017-02-09T13:37:25.705Z,9.65
2017-02-09T13:38:25.646Z,9.65
2017-02-09T13:39:25.192Z,9.94
2017-02-09T13:40:25.805Z,9.94
2017-02-09T13:41:25.443Z,9.65
2017-02-09T13:42:25.396Z,9.55
2017-02-09T13:43:25.319Z,9.45
2017-02-09T13:44:25.253Z,9.45
2017-02-09T13:45:25.489Z,9.45
2017-02-09T13:46:25.130Z,9.55
2017-02-09T13:47:25.066Z,9.75
2017-02-09T13:48:25.007Z,9.65
2017-02-09T13:49:24.937Z,9.27
2017-02-09T13:50:25.027Z,9.27
2017-02-09T13:51:24.816Z,9.27
2017-02-09T13:52:24.746Z,9.27
2017-02-09T13:53:24.689Z,9.17
2017-02-09T13:54:24.624Z,9.07
2017-02-09T13:55:24.562Z,8.78
2017-02-09T13:56:24.497Z,9.17
2017-02-09T13:57:24.434Z,9.55
2017-02-09T13:58:24.373Z,9.36
2017-02-09T13:59:24.341Z,9.27
2017-02-09T14:00:24.593Z,9.45
2017-02-09T14:01:24.180Z,9.27
2017-02-09T14:02:24.117Z,9.45
2017-02-09T14:03:24.056Z,9.65
2017-02-09T14:04:23.994Z,9.45
2017-02-09T14:05:24.233Z,9.45
2017-02-09T14:06:23.870Z,9.36
2017-02-09T14:07:23.808Z,9.94
2017-02-09T14:08:23.356Z,9.65
2017-02-09T14:09:23.675Z,10.23
2017-02-09T14:10:23.620Z,10.32
2017-02-09T14:11:23.562Z,10.61
2017-02-09T14:12:23.526Z,10.52
2017-02-09T14:13:23.424Z,10.71